Time;durP1;ratioP1;P1;durP2;ratioP2;P2;SDS_P1;SDS_P2;PMS_P1;PMS_P2;Temp;Humidity;BMP_temperature;BMP_pressure;BME280_temperature;BME280_humidity;BME280_pressure;Samples;Min_cycle;Max_cycle;Signal;HPM_P1;HPM_P2
2021/01/05 00:01:41;;;;;;;14.93;10.00;;;;;;;1.02;90.80;98140.81;4933510;28;102611;-82
2021/01/05 00:04:08;;;;;;;17.80;12.80;;;;;;;0.63;92.38;98139.88;4931728;28;105915;-84
2021/01/05 00:06:35;;;;;;;16.60;12.53;;;;;;;0.70;93.32;98146.53;4932554;28;103246;-82
2021/01/05 00:09:04;;;;;;;19.67;14.07;;;;;;;0.73;93.34;98143.81;4917280;28;102593;-81
2021/01/05 00:11:31;;;;;;;17.13;12.83;;;;;;;0.87;93.18;98128.47;4934507;28;103052;-81
2021/01/05 00:13:59;;;;;;;17.33;13.30;;;;;;;0.93;92.50;98141.19;4933516;28;103797;-82
2021/01/05 00:16:29;;;;;;;17.33;12.00;;;;;;;1.06;92.24;98134.56;4933413;28;103394;-86
2021/01/05 00:18:56;;;;;;;17.10;13.03;;;;;;;0.86;92.19;98137.16;4933874;28;102581;-81
2021/01/05 00:21:25;;;;;;;15.60;11.20;;;;;;;1.10;92.17;98136.13;4916197;28;103113;-82
2021/01/05 00:23:53;;;;;;;19.80;13.87;;;;;;;0.82;92.69;98141.66;4931477;28;103167;-85
2021/01/05 00:26:20;;;;;;;18.90;14.00;;;;;;;0.79;92.56;98130.53;4933136;28;104210;-84
2021/01/05 00:28:47;;;;;;;18.60;13.33;;;;;;;0.75;93.18;98137.63;4932816;28;102674;-85
2021/01/05 00:31:15;;;;;;;19.40;14.20;;;;;;;0.64;93.66;98152.84;4916488;28;102815;-81
2021/01/05 00:33:42;;;;;;;17.80;13.70;;;;;;;0.71;93.87;98146.47;4933668;28;104475;-83
2021/01/05 00:36:09;;;;;;;18.97;13.43;;;;;;;0.96;93.22;98143.66;4932839;28;103759;-80
2021/01/05 00:38:36;;;;;;;16.33;10.77;;;;;;;1.06;92.83;98144.97;4932292;28;102587;-80
2021/01/05 00:41:03;;;;;;;14.23;10.27;;;;;;;1.12;91.92;98134.31;4934387;28;102613;-83
2021/01/05 00:43:30;;;;;;;15.93;11.80;;;;;;;1.18;91.26;98139.22;4932215;28;104653;-81
2021/01/05 00:45:57;;;;;;;17.30;12.83;;;;;;;0.91;91.93;98145.63;4933019;28;103747;-84
2021/01/05 00:48:25;;;;;;;14.80;10.07;;;;;;;1.10;92.78;98152.56;4933890;28;102635;-84
2021/01/05 00:50:53;;;;;;;19.00;12.90;;;;;;;1.18;91.98;98153.09;4933550;28;102540;-83
2021/01/05 00:53:20;;;;;;;16.60;13.37;;;;;;;1.12;91.60;98152.53;4932208;28;103952;-80
2021/01/05 00:55:48;;;;;;;19.23;14.13;;;;;;;1.03;92.42;98150.31;4914713;28;103170;-82
2021/01/05 00:58:15;;;;;;;18.30;12.17;;;;;;;1.09;92.51;98150.06;4931488;28;103253;-83
2021/01/05 01:00:42;;;;;;;19.17;13.20;;;;;;;1.17;92.20;98154.00;4912329;28;103151;-81
2021/01/05 01:03:15;;;;;;;17.10;12.70;;;;;;;0.94;92.47;98161.09;4913477;28;102971;-83
2021/01/05 01:05:43;;;;;;;18.00;12.43;;;;;;;0.84;93.80;98160.63;4915500;28;103121;-82
2021/01/05 01:08:15;;;;;;;14.20;10.23;;;;;;;1.14;92.97;98159.34;4914523;28;103171;-81
2021/01/05 01:10:49;;;;;;;12.20;9.00;;;;;;;1.34;92.54;98150.69;4917521;28;102760;-85
2021/01/05 01:13:18;;;;;;;16.23;10.87;;;;;;;1.43;91.86;98154.63;4917554;28;104053;-85
2021/01/05 01:15:46;;;;;;;18.73;13.40;;;;;;;1.16;91.44;98154.91;4917864;28;104087;-88
2021/01/05 01:18:13;;;;;;;18.40;13.00;;;;;;;1.03;92.25;98152.91;4918210;28;102630;-87
2021/01/05 01:20:44;;;;;;;17.37;12.30;;;;;;;1.09;93.16;98157.84;4917002;28;103963;-87
2021/01/05 01:23:18;;;;;;;17.40;12.63;;;;;;;1.09;92.65;98150.06;4916170;28;105243;-87
2021/01/05 01:25:49;;;;;;;18.67;13.03;;;;;;;1.07;93.46;98157.06;4915788;28;105989;-87
2021/01/05 01:28:18;;;;;;;18.73;13.53;;;;;;;0.99;93.01;98156.53;4913989;28;103014;-88
2021/01/05 01:30:48;;;;;;;13.50;9.67;;;;;;;1.17;93.26;98158.38;4932386;28;102881;-87
2021/01/05 01:33:18;;;;;;;17.33;12.47;;;;;;;1.31;92.74;98156.00;4914880;28;107049;-88
2021/01/05 01:35:47;;;;;;;18.43;13.40;;;;;;;1.30;92.66;98153.47;4898333;28;103741;-86
2021/01/05 01:38:15;;;;;;;14.97;9.97;;;;;;;1.42;92.14;98152.94;4913874;28;102678;-85
2021/01/05 01:40:57;;;;;;;17.23;12.73;;;;;;;1.29;91.00;98157.84;4913945;28;102623;-88
2021/01/05 01:43:31;;;;;;;18.67;13.47;;;;;;;1.08;92.00;98156.16;4897493;28;105760;-86
2021/01/05 01:46:06;;;;;;;13.47;10.00;;;;;;;1.23;92.92;98147.69;4913576;28;103292;-86
2021/01/05 01:48:41;;;;;;;17.87;11.43;;;;;;;1.40;92.71;98142.59;4912299;28;103483;-85
2021/01/05 01:51:12;;;;;;;19.60;13.17;;;;;;;1.26;91.11;98150.16;4924089;28;103625;-84
2021/01/05 01:54:11;;;;;;;17.53;13.60;;;;;;;1.24;92.19;98148.50;4913335;28;103574;-88
2021/01/05 01:57:06;;;;;;;15.47;10.47;;;;;;;1.25;92.15;98147.63;4898848;28;102887;-87
2021/01/05 01:59:52;;;;;;;16.40;11.23;;;;;;;1.20;93.09;98155.63;4913430;28;102750;-85
2021/01/05 02:02:44;;;;;;;20.47;13.13;;;;;;;1.29;92.43;98157.00;4927144;28;103726;-83
2021/01/05 02:05:14;;;;;;;20.33;12.17;;;;;;;1.17;93.71;98153.16;4911318;28;106005;-87
2021/01/05 02:07:57;;;;;;;19.03;12.97;;;;;;;1.03;92.71;98155.50;4897203;28;105890;-83
2021/01/05 02:10:47;;;;;;;18.53;12.00;;;;;;;1.09;93.68;98157.84;4930761;28;103302;-86
2021/01/05 02:13:35;;;;;;;15.13;9.73;;;;;;;1.30;93.41;98151.72;4897761;28;102728;-84
2021/01/05 02:16:22;;;;;;;19.77;13.67;;;;;;;1.03;93.51;98150.31;4913841;28;103064;-86
2021/01/05 02:18:54;;;;;;;19.67;13.70;;;;;;;1.12;92.89;98148.13;4912891;28;103768;-85
2021/01/05 02:21:25;;;;;;;19.20;13.23;;;;;;;1.00;94.05;98140.88;4928936;28;102771;-85
2021/01/05 02:24:13;;;;;;;21.87;13.93;;;;;;;1.04;93.84;98146.78;4912620;28;103255;-86
2021/01/05 02:26:50;;;;;;;20.70;14.40;;;;;;;1.03;93.69;98145.09;4913008;28;102837;-80
2021/01/05 02:29:23;;;;;;;14.97;10.70;;;;;;;1.05;94.05;98143.28;4912570;28;102845;-87
2021/01/05 02:32:03;;;;;;;19.93;13.13;;;;;;;1.16;94.37;98141.06;4910881;28;102867;-84
2021/01/05 02:34:58;;;;;;;20.53;12.50;;;;;;;1.09;93.40;98137.03;4914018;28;102755;-87
2021/01/05 02:38:01;;;;;;;22.57;14.93;;;;;;;1.00;94.01;98137.44;4931152;28;102773;-82
2021/01/05 02:41:11;;;;;;;19.17;14.17;;;;;;;1.13;94.22;98135.97;4931051;28;103113;-87
2021/01/05 02:44:23;;;;;;;19.37;13.83;;;;;;;1.33;93.50;98127.31;4931344;28;103092;-85
2021/01/05 02:47:32;;;;;;;20.20;12.80;;;;;;;1.31;93.85;98131.75;4930937;28;102570;-87
2021/01/05 02:50:29;;;;;;;18.87;12.17;;;;;;;1.26;94.52;98139.75;4930672;28;104345;-85
2021/01/05 02:53:38;;;;;;;20.77;13.83;;;;;;;1.32;93.88;98134.25;4931080;28;103143;-86
2021/01/05 02:57:02;;;;;;;18.43;11.90;;;;;;;1.29;94.05;98136.19;4929933;28;103555;-86
2021/01/05 03:00:26;;;;;;;20.43;13.00;;;;;;;1.31;94.28;98124.78;4930480;28;105127;-84
2021/01/05 03:03:36;;;;;;;20.70;13.50;;;;;;;1.45;94.00;98112.00;4926523;28;102619;-86
2021/01/05 03:06:33;;;;;;;21.17;15.67;;;;;;;1.43;93.15;98107.78;4930742;28;102617;-85
2021/01/05 03:09:46;;;;;;;18.10;11.37;;;;;;;1.55;93.20;98121.06;4931803;28;103034;-87
2021/01/05 03:12:54;;;;;;;18.77;12.33;;;;;;;1.62;94.21;98122.50;4931076;28;103046;-82
2021/01/05 03:15:46;;;;;;;15.87;10.23;;;;;;;1.59;93.40;98116.56;4929406;28;104009;-84
2021/01/05 03:18:45;;;;;;;19.40;12.73;;;;;;;1.62;93.33;98119.91;4929018;28;104044;-85
2021/01/05 03:21:35;;;;;;;19.83;14.17;;;;;;;1.54;93.79;98129.81;4929871;28;103255;-85
2021/01/05 03:24:22;;;;;;;15.33;10.57;;;;;;;1.54;93.58;98131.56;4930030;28;102687;-84
2021/01/05 03:27:10;;;;;;;20.00;14.07;;;;;;;1.53;93.89;98132.47;4928895;28;104295;-86
2021/01/05 03:29:59;;;;;;;22.80;16.20;;;;;;;1.38;94.19;98123.59;4927165;28;102954;-84
2021/01/05 03:32:46;;;;;;;25.97;16.40;;;;;;;1.31;95.19;98132.59;4927831;28;102599;-85
2021/01/05 03:35:34;;;;;;;17.63;11.27;;;;;;;1.41;95.29;98131.25;4883217;28;102951;-84
2021/01/05 03:38:19;;;;;;;21.63;14.40;;;;;;;1.57;94.82;98136.63;4926791;28;103859;-83
2021/01/05 03:41:15;;;;;;;17.87;11.53;;;;;;;1.58;94.13;98123.53;4857873;28;102862;-85
2021/01/05 03:44:09;;;;;;;27.20;17.37;;;;;;;1.55;94.50;98118.47;4902807;28;103286;-86
2021/01/05 03:46:55;;;;;;;20.00;12.33;;;;;;;1.66;94.93;98126.63;4928197;28;102647;-83
2021/01/05 03:49:46;;;;;;;17.57;11.37;;;;;;;1.73;94.72;98120.25;4887108;28;103362;-85
2021/01/05 03:52:33;;;;;;;16.20;10.93;;;;;;;1.68;94.99;98122.19;4909609;28;105528;-83
2021/01/05 03:55:38;;;;;;;17.73;10.67;;;;;;;1.79;94.91;98126.94;4831903;29;103347;-84
2021/01/05 03:58:24;;;;;;;16.70;10.87;;;;;;;1.87;94.63;98124.81;4842745;29;102608;-87
2021/01/05 04:01:10;;;;;;;18.40;11.70;;;;;;;1.75;94.89;98123.63;4902981;28;103981;-77
2021/01/05 04:03:37;;;;;;;21.60;14.27;;;;;;;1.79;94.77;98120.88;4925388;28;104017;-84
2021/01/05 04:06:05;;;;;;;21.57;14.37;;;;;;;1.77;94.51;98114.91;4927735;28;102642;-84
2021/01/05 04:08:32;;;;;;;19.57;13.57;;;;;;;1.79;94.44;98126.09;4926272;28;102772;-85
2021/01/05 04:10:59;;;;;;;19.70;13.37;;;;;;;1.75;95.42;98126.22;4926594;28;104020;-84
2021/01/05 04:13:27;;;;;;;23.63;17.30;;;;;;;1.69;95.75;98123.91;4930192;28;103537;-85
2021/01/05 04:15:54;;;;;;;19.80;13.53;;;;;;;1.77;95.99;98122.72;4911647;28;102990;-82
2021/01/05 04:18:21;;;;;;;20.73;13.77;;;;;;;1.77;95.83;98127.91;4929917;28;104741;-82
2021/01/05 04:20:48;;;;;;;23.50;17.03;;;;;;;1.68;95.84;98127.41;4912038;28;104385;-84
2021/01/05 04:23:16;;;;;;;22.70;15.57;;;;;;;1.77;95.94;98127.91;4929878;28;102971;-79
2021/01/05 04:25:43;;;;;;;21.97;14.70;;;;;;;1.77;96.10;98119.16;4928542;28;103145;-83
2021/01/05 04:28:10;;;;;;;16.53;11.13;;;;;;;1.85;95.74;98120.59;4929500;28;102982;-82
2021/01/05 04:30:37;;;;;;;23.77;17.13;;;;;;;1.64;96.16;98125.88;4928756;28;105122;-82
2021/01/05 04:33:07;;;;;;;19.97;14.17;;;;;;;1.71;97.05;98135.06;4911730;28;104249;-80
2021/01/05 04:35:35;;;;;;;23.57;16.17;;;;;;;1.57;96.88;98124.44;4928404;28;102953;-79
2021/01/05 04:38:02;;;;;;;21.10;16.50;;;;;;;1.65;97.12;98119.75;4928936;28;102985;-81
2021/01/05 04:40:36;;;;;;;19.90;13.27;;;;;;;1.69;97.50;98120.44;4926156;28;103995;-80
2021/01/05 04:43:19;;;;;;;24.60;18.07;;;;;;;1.53;98.35;98132.47;4932684;28;104433;-76
2021/01/05 04:45:59;;;;;;;24.40;18.03;;;;;;;1.54;98.31;98122.00;4926114;28;103101;-77
2021/01/05 04:48:39;;;;;;;17.83;13.17;;;;;;;1.65;98.29;98119.75;4927321;28;103517;-76
2021/01/05 04:51:14;;;;;;;19.90;15.47;;;;;;;1.75;98.15;98121.00;4926382;28;104447;-76
2021/01/05 04:53:48;;;;;;;21.40;16.83;;;;;;;1.67;98.01;98128.34;4928410;28;103885;-77
2021/01/05 04:56:52;;;;;;;21.20;15.33;;;;;;;1.69;97.66;98134.31;4927547;28;102664;-76
2021/01/05 04:59:22;;;;;;;20.53;15.00;;;;;;;1.56;98.80;98135.78;4928264;28;103440;-76
2021/01/05 05:01:50;;;;;;;21.23;16.17;;;;;;;1.57;99.55;98132.25;4928027;28;103880;-76
2021/01/05 05:04:26;;;;;;;21.83;14.70;;;;;;;1.67;98.93;98146.56;4926992;28;104967;-79
2021/01/05 05:07:02;;;;;;;17.37;12.83;;;;;;;1.75;98.82;98144.44;4929020;28;102831;-76
2021/01/05 05:09:43;;;;;;;19.90;13.10;;;;;;;1.81;97.89;98139.88;4910812;28;103113;-79
2021/01/05 05:12:28;;;;;;;21.37;15.63;;;;;;;1.86;98.08;98140.50;4926983;28;104193;-78
2021/01/05 05:15:04;;;;;;;21.70;16.70;;;;;;;1.88;98.02;98141.28;4925672;28;103358;-76
2021/01/05 05:17:58;;;;;;;18.27;13.17;;;;;;;1.96;97.62;98147.00;4926812;28;102882;-77
2021/01/05 05:20:47;;;;;;;16.57;11.10;;;;;;;2.02;97.45;98146.72;4930112;28;102709;-81
2021/01/05 05:23:30;;;;;;;21.03;15.80;;;;;;;2.00;96.91;98146.75;4924881;28;103971;-77
2021/01/05 05:26:05;;;;;;;21.47;14.13;;;;;;;2.03;97.28;98145.78;4926952;28;104479;-77
2021/01/05 05:28:41;;;;;;;19.53;14.50;;;;;;;2.05;97.63;98150.00;4927546;28;102852;-77
2021/01/05 05:31:12;;;;;;;15.87;11.47;;;;;;;2.08;97.83;98155.06;4910453;28;103216;-77
2021/01/05 05:33:40;;;;;;;17.57;12.70;;;;;;;2.10;97.68;98155.84;4926902;28;103840;-78
2021/01/05 05:36:22;;;;;;;19.80;14.67;;;;;;;2.04;96.84;98158.75;4927574;28;103832;-77
2021/01/05 05:39:08;;;;;;;21.53;14.93;;;;;;;2.02;96.99;98157.13;4929119;28;102867;-85
2021/01/05 05:41:46;;;;;;;18.63;12.17;;;;;;;2.04;97.14;98156.13;4930700;28;102952;-77
2021/01/05 05:44:24;;;;;;;19.70;14.67;;;;;;;1.99;97.23;98154.66;4926941;28;103948;-77
2021/01/05 05:46:57;;;;;;;13.30;10.03;;;;;;;2.08;97.90;98159.41;4926827;28;104784;-76
2021/01/05 05:49:37;;;;;;;12.87;9.17;;;;;;;2.14;97.80;98166.97;4928032;28;102682;-76
2021/01/05 05:52:17;;;;;;;17.63;12.67;;;;;;;2.09;97.20;98168.94;4909898;28;103408;-75
2021/01/05 05:54:44;;;;;;;20.10;13.67;;;;;;;2.14;97.37;98164.34;4927191;28;107083;-74
2021/01/05 05:57:35;;;;;;;17.57;12.57;;;;;;;2.11;97.19;98174.91;4926827;28;104922;-74
2021/01/05 06:00:15;;;;;;;21.17;16.03;;;;;;;2.00;96.90;98178.03;4926955;28;103019;-75
2021/01/05 06:02:42;;;;;;;19.67;14.53;;;;;;;1.86;98.41;98184.78;4927192;28;102948;-74
2021/01/05 06:05:20;;;;;;;18.33;13.17;;;;;;;1.92;98.57;98181.91;4926870;28;103187;-74
2021/01/05 06:07:47;;;;;;;22.00;16.17;;;;;;;1.94;98.10;98185.31;4930625;28;103532;-80
2021/01/05 06:10:14;;;;;;;20.50;15.40;;;;;;;1.97;98.35;98185.13;4907347;28;103194;-77
2021/01/05 06:12:41;;;;;;;16.17;12.43;;;;;;;2.06;97.86;98192.53;4907991;28;102995;-76
2021/01/05 06:15:10;;;;;;;13.00;9.63;;;;;;;2.14;97.63;98185.19;4926762;28;103756;-77
2021/01/05 06:17:37;;;;;;;16.70;13.47;;;;;;;2.17;97.35;98192.88;4927171;28;103345;-77
2021/01/05 06:20:05;;;;;;;17.17;11.53;;;;;;;2.20;97.58;98195.34;4927663;28;103028;-76
2021/01/05 06:22:32;;;;;;;15.73;10.43;;;;;;;2.23;97.34;98200.41;4927109;28;103132;-76
2021/01/05 06:24:59;;;;;;;14.93;9.83;;;;;;;2.28;97.08;98198.44;4926960;28;104988;-77
2021/01/05 06:27:26;;;;;;;19.87;15.50;;;;;;;2.24;96.30;98202.13;4909384;28;104815;-76
2021/01/05 06:29:53;;;;;;;16.33;11.80;;;;;;;2.26;96.40;98202.88;4926412;28;103187;-76
2021/01/05 06:32:22;;;;;;;16.50;10.80;;;;;;;2.28;96.53;98208.84;4927114;28;102983;-76
2021/01/05 06:34:49;;;;;;;14.03;9.60;;;;;;;2.21;96.84;98197.91;4924509;28;103481;-76
2021/01/05 06:37:16;;;;;;;17.47;13.57;;;;;;;2.27;97.06;98186.34;4909622;28;103208;-77
2021/01/05 06:39:44;;;;;;;20.73;16.40;;;;;;;2.21;96.56;98194.44;4927489;28;103013;-77
2021/01/05 06:42:11;;;;;;;18.93;14.63;;;;;;;2.10;97.40;98200.16;4926332;28;102961;-76
2021/01/05 06:44:38;;;;;;;17.90;12.73;;;;;;;2.08;97.35;98201.13;4926971;28;103881;-76
2021/01/05 06:47:05;;;;;;;16.83;12.17;;;;;;;2.18;97.82;98192.81;4927240;28;104571;-76
2021/01/05 06:49:42;;;;;;;19.13;13.70;;;;;;;2.04;98.41;98204.78;4926060;28;103687;-77
2021/01/05 06:52:09;;;;;;;18.87;14.03;;;;;;;1.92;97.90;98207.94;4927312;28;102997;-76
2021/01/05 06:54:36;;;;;;;17.97;13.80;;;;;;;1.99;99.03;98218.03;4926706;28;103777;-77
2021/01/05 06:57:04;;;;;;;17.50;13.27;;;;;;;2.01;98.45;98220.56;4926278;28;103291;-77
2021/01/05 06:59:31;;;;;;;18.63;13.77;;;;;;;2.11;98.95;98217.47;4925638;28;102595;-77
2021/01/05 07:01:59;;;;;;;11.80;9.63;;;;;;;2.13;97.74;98209.59;4927385;28;102750;-77
2021/01/05 07:04:27;;;;;;;18.20;12.97;;;;;;;2.10;97.52;98220.16;4924778;28;103213;-76
2021/01/05 07:06:57;;;;;;;18.83;14.20;;;;;;;1.88;98.46;98224.66;4926373;28;103744;-77
2021/01/05 07:09:29;;;;;;;15.07;11.03;;;;;;;1.97;99.07;98226.81;4927240;28;102630;-77
2021/01/05 07:11:56;;;;;;;15.00;12.00;;;;;;;2.01;98.56;98220.56;4927147;28;102995;-77
2021/01/05 07:14:26;;;;;;;17.93;13.73;;;;;;;2.08;98.62;98216.75;4909144;28;105373;-77
2021/01/05 07:16:53;;;;;;;16.03;11.80;;;;;;;2.11;97.85;98214.00;4926450;28;103742;-77
2021/01/05 07:19:20;;;;;;;18.30;13.63;;;;;;;2.17;98.09;98205.91;4927092;28;102956;-78
2021/01/05 07:21:48;;;;;;;16.47;12.30;;;;;;;2.09;97.81;98213.25;4925383;28;102719;-78
2021/01/05 07:24:15;;;;;;;15.70;11.30;;;;;;;2.18;98.26;98223.25;4925297;28;104100;-77
2021/01/05 07:26:47;;;;;;;19.77;14.40;;;;;;;2.08;98.32;98227.16;4925877;28;103786;-77
2021/01/05 07:29:16;;;;;;;16.30;12.03;;;;;;;1.95;98.43;98232.09;4925816;28;102721;-77
2021/01/05 07:31:44;;;;;;;17.57;13.67;;;;;;;1.96;98.79;98222.53;4926246;28;103342;-77
2021/01/05 07:34:11;;;;;;;18.33;14.10;;;;;;;1.88;98.98;98219.44;4926033;28;104525;-77
2021/01/05 07:36:41;;;;;;;14.37;11.03;;;;;;;1.88;99.78;98225.47;4926375;28;103326;-77
2021/01/05 07:39:20;;;;;;;15.80;12.57;;;;;;;2.02;99.83;98232.69;4925847;28;102970;-77
2021/01/05 07:41:48;;;;;;;12.23;9.43;;;;;;;2.03;99.17;98234.34;4909749;28;102745;-77
2021/01/05 07:44:16;;;;;;;13.13;9.13;;;;;;;2.06;99.29;98239.44;4925943;28;103811;-77
2021/01/05 07:46:44;;;;;;;14.87;11.40;;;;;;;2.12;99.02;98239.16;4928237;28;103795;-79
2021/01/05 07:49:13;;;;;;;15.33;12.27;;;;;;;1.94;98.85;98235.63;4926137;28;102730;-79
2021/01/05 07:51:45;;;;;;;15.03;11.67;;;;;;;1.90;98.99;98243.66;4931157;28;102605;-78
2021/01/05 07:54:12;;;;;;;17.83;13.23;;;;;;;1.66;100.00;98236.00;4929448;28;103961;-83
2021/01/05 07:56:44;;;;;;;17.40;13.20;;;;;;;1.72;100.00;98227.94;4932217;28;103689;-87
2021/01/05 07:59:15;;;;;;;13.83;11.43;;;;;;;1.73;100.00;98231.38;4933312;28;103034;-81
2021/01/05 08:01:42;;;;;;;15.00;11.20;;;;;;;1.83;99.82;98237.00;4928464;28;102947;-77
2021/01/05 08:04:09;;;;;;;17.57;13.37;;;;;;;1.90;99.41;98238.44;4910562;28;105113;-77
2021/01/05 08:06:41;;;;;;;13.97;10.17;;;;;;;1.97;99.10;98239.84;4930409;28;103250;-79
2021/01/05 08:09:09;;;;;;;15.40;11.50;;;;;;;1.96;99.38;98232.97;4895271;28;103127;-75
2021/01/05 08:11:37;;;;;;;15.47;12.20;;;;;;;1.82;99.36;98240.53;4926031;28;103295;-75
2021/01/05 08:14:06;;;;;;;15.93;13.33;;;;;;;1.78;100.00;98234.63;4925263;28;105663;-79
2021/01/05 08:16:33;;;;;;;16.43;13.93;;;;;;;1.66;100.00;98238.59;4925311;28;103373;-75
2021/01/05 08:19:00;;;;;;;17.90;13.67;;;;;;;1.60;100.00;98238.88;4928972;28;102663;-80
2021/01/05 08:21:27;;;;;;;19.07;13.47;;;;;;;1.65;100.00;98233.47;4929915;28;102813;-78
2021/01/05 08:23:54;;;;;;;18.60;13.50;;;;;;;1.76;100.00;98236.47;4927420;28;102914;-74
2021/01/05 08:26:22;;;;;;;17.10;13.47;;;;;;;1.88;100.00;98240.28;4928124;28;102573;-75
2021/01/05 08:28:49;;;;;;;16.10;12.87;;;;;;;1.99;100.00;98248.47;4927936;28;103069;-78
2021/01/05 08:31:17;;;;;;;13.73;11.47;;;;;;;1.88;100.00;98250.69;4925880;28;104010;-78
2021/01/05 08:33:44;;;;;;;18.07;13.53;;;;;;;1.56;100.00;98239.94;4925386;28;104340;-77
2021/01/05 08:36:11;;;;;;;16.53;12.53;;;;;;;1.77;100.00;98244.19;4928915;28;103787;-84
2021/01/05 08:38:38;;;;;;;18.97;13.80;;;;;;;1.69;100.00;98241.09;4908338;28;102632;-85
2021/01/05 08:41:05;;;;;;;18.57;14.00;;;;;;;1.55;100.00;98233.03;4931058;28;102777;-81
2021/01/05 08:43:32;;;;;;;16.27;13.63;;;;;;;1.45;100.00;98231.75;4895322;28;105347;-80
2021/01/05 08:45:59;;;;;;;18.13;14.60;;;;;;;1.43;100.00;98224.91;4927673;28;103664;-77
2021/01/05 08:48:27;;;;;;;19.60;14.70;;;;;;;1.43;100.00;98232.72;4927274;28;102829;-77
2021/01/05 08:50:54;;;;;;;16.77;13.07;;;;;;;1.60;100.00;98233.66;4926608;28;103293;-77
2021/01/05 08:53:22;;;;;;;20.37;13.60;;;;;;;1.62;100.00;98224.06;4925723;28;104197;-77
2021/01/05 08:55:49;;;;;;;19.87;14.50;;;;;;;1.47;100.00;98221.25;4927563;28;103455;-77
2021/01/05 08:58:17;;;;;;;19.97;14.70;;;;;;;1.50;100.00;98229.78;4924567;28;104667;-79
2021/01/05 09:00:44;;;;;;;19.47;15.00;;;;;;;1.46;100.00;98222.19;4928490;28;103031;-77
2021/01/05 09:03:11;;;;;;;18.40;13.90;;;;;;;1.58;100.00;98225.09;4924599;28;104095;-77
2021/01/05 09:05:46;;;;;;;19.47;14.73;;;;;;;1.49;100.00;98222.03;4925903;28;103888;-79
2021/01/05 09:08:14;;;;;;;18.60;14.43;;;;;;;1.34;100.00;98228.75;4928475;28;103530;-79
2021/01/05 09:10:41;;;;;;;18.87;14.73;;;;;;;1.36;100.00;98232.13;4903446;28;105811;-77
2021/01/05 09:13:08;;;;;;;19.37;15.60;;;;;;;1.41;100.00;98227.56;4919733;28;104456;-79
2021/01/05 09:15:36;;;;;;;20.10;15.37;;;;;;;1.64;100.00;98227.41;4920457;28;104549;-78
2021/01/05 09:20:59;;;;;;;21.77;15.97;;;;;;;1.65;100.00;98229.13;4882279;28;103201;-80
2021/01/05 09:23:26;;;;;;;21.13;15.70;;;;;;;1.72;100.00;98233.13;4878182;28;105028;-79
2021/01/05 09:25:55;;;;;;;19.47;14.97;;;;;;;1.56;100.00;98233.88;4875338;28;103188;-77
2021/01/05 09:28:26;;;;;;;20.03;15.47;;;;;;;1.59;100.00;98233.75;4879307;28;103065;-76
2021/01/05 09:30:53;;;;;;;18.60;13.90;;;;;;;1.60;100.00;98236.25;4883888;28;104738;-76
2021/01/05 09:33:22;;;;;;;19.77;13.93;;;;;;;1.74;100.00;98239.13;4884018;28;104902;-76
2021/01/05 09:35:50;;;;;;;21.00;15.57;;;;;;;1.75;100.00;98239.97;4884659;28;104270;-76
2021/01/05 09:38:18;;;;;;;18.43;13.70;;;;;;;1.87;100.00;98243.78;4882775;28;105176;-78
2021/01/05 09:40:45;;;;;;;20.47;15.30;;;;;;;1.72;100.00;98247.91;4890493;28;102827;-81
2021/01/05 09:43:13;;;;;;;18.33;14.20;;;;;;;1.61;100.00;98242.31;4882644;28;104501;-80
2021/01/05 09:45:40;;;;;;;19.10;14.13;;;;;;;1.55;100.00;98243.44;4885872;28;103908;-81
2021/01/05 09:48:09;;;;;;;18.93;14.47;;;;;;;1.63;100.00;98236.13;4882889;28;103250;-78
2021/01/05 09:50:40;;;;;;;19.50;14.70;;;;;;;1.71;100.00;98243.63;4882088;28;102775;-80
2021/01/05 09:53:08;;;;;;;19.47;14.57;;;;;;;1.59;100.00;98242.41;4887290;28;103988;-78
2021/01/05 09:55:37;;;;;;;19.70;14.83;;;;;;;1.75;100.00;98243.41;4884424;28;103937;-78
2021/01/05 09:58:04;;;;;;;17.77;14.07;;;;;;;1.81;100.00;98244.06;4884419;28;102995;-79
2021/01/05 10:00:33;;;;;;;19.03;14.43;;;;;;;1.72;100.00;98245.31;4888950;28;103265;-85
2021/01/05 10:03:00;;;;;;;19.07;13.33;;;;;;;1.70;100.00;98248.00;4879509;28;104920;-86
2021/01/05 10:05:27;;;;;;;14.80;10.80;;;;;;;1.92;100.00;98249.63;4878586;28;103221;-78
2021/01/05 10:07:56;;;;;;;17.17;13.63;;;;;;;1.91;100.00;98246.19;4885812;28;103173;-79
2021/01/05 10:10:26;;;;;;;18.97;13.30;;;;;;;2.02;100.00;98248.31;4876908;28;103396;-79
2021/01/05 10:12:54;;;;;;;17.00;12.87;;;;;;;2.16;100.00;98238.13;4889978;28;105901;-80
2021/01/05 10:15:24;;;;;;;13.17;10.57;;;;;;;2.19;100.00;98236.19;4880880;28;105750;-82
2021/01/05 10:17:51;;;;;;;15.13;10.90;;;;;;;2.34;100.00;98243.31;4877592;28;103207;-85
2021/01/05 10:20:21;;;;;;;14.00;9.77;;;;;;;2.23;100.00;98244.72;4880567;28;102790;-83
2021/01/05 10:22:48;;;;;;;17.03;12.40;;;;;;;2.38;100.00;98241.41;4874360;28;103834;-83
2021/01/05 10:25:16;;;;;;;17.80;14.13;;;;;;;2.30;100.00;98238.34;4877297;28;103794;-82
2021/01/05 10:27:43;;;;;;;20.33;14.77;;;;;;;2.31;100.00;98246.06;4882595;28;102531;-82
2021/01/05 10:30:16;;;;;;;15.30;12.87;;;;;;;2.28;99.99;98237.53;4879354;28;103097;-80
2021/01/05 10:32:44;;;;;;;18.27;13.03;;;;;;;2.16;100.00;98236.34;4881950;28;102968;-83
2021/01/05 10:35:13;;;;;;;21.20;14.10;;;;;;;2.20;99.52;98229.22;4877486;28;104942;-81
2021/01/05 10:37:41;;;;;;;17.53;13.73;;;;;;;2.22;100.00;98212.59;4871977;28;102691;-85
2021/01/05 10:40:08;;;;;;;19.53;14.07;;;;;;;2.27;100.00;98201.97;4880387;28;103450;-81
2021/01/05 10:42:40;;;;;;;16.70;11.33;;;;;;;2.49;100.00;98207.88;4875283;28;103393;-82
2021/01/05 10:45:08;;;;;;;16.70;13.57;;;;;;;2.60;100.00;98205.59;4880104;28;104192;-82
2021/01/05 10:47:38;;;;;;;15.63;12.03;;;;;;;2.69;99.88;98212.13;4879061;28;102606;-80
2021/01/05 10:50:07;;;;;;;17.03;13.63;;;;;;;2.66;99.31;98214.88;4886189;28;102755;-82
2021/01/05 10:52:34;;;;;;;20.63;13.63;;;;;;;2.39;98.17;98211.00;4877242;28;104900;-86
2021/01/05 10:55:01;;;;;;;18.60;14.07;;;;;;;2.28;99.79;98214.06;4881041;28;104153;-86
2021/01/05 10:57:28;;;;;;;18.17;13.77;;;;;;;2.29;100.00;98218.38;4885693;28;102641;-84
2021/01/05 10:59:55;;;;;;;19.70;14.53;;;;;;;2.43;100.00;98202.94;4880644;28;103140;-82
2021/01/05 11:02:23;;;;;;;17.23;14.00;;;;;;;2.38;99.35;98204.91;4875379;28;106230;-81
2021/01/05 11:04:51;;;;;;;21.20;14.90;;;;;;;2.38;99.24;98199.72;4879461;28;105996;-82
2021/01/05 11:07:18;;;;;;;15.67;11.23;;;;;;;2.58;99.75;98202.22;4883579;28;102704;-81
2021/01/05 11:09:45;;;;;;;15.37;11.53;;;;;;;2.74;99.61;98197.94;4877118;28;102646;-81
2021/01/05 11:12:19;;;;;;;18.67;14.97;;;;;;;2.68;98.19;98197.38;4879491;28;104921;-81
2021/01/05 11:14:46;;;;;;;20.50;14.17;;;;;;;2.46;98.87;98192.38;4876112;28;106011;-80
2021/01/05 11:17:13;;;;;;;21.40;15.13;;;;;;;2.39;99.44;98193.56;4875545;28;103225;-83
2021/01/05 11:19:42;;;;;;;20.40;15.17;;;;;;;2.38;99.41;98191.03;4871753;28;103217;-81
2021/01/05 11:22:14;;;;;;;18.57;13.47;;;;;;;2.53;99.71;98201.56;4874157;28;103787;-83
2021/01/05 11:24:42;;;;;;;21.57;15.70;;;;;;;2.50;99.58;98198.28;4881343;28;104020;-83
2021/01/05 11:27:09;;;;;;;20.93;16.57;;;;;;;2.46;100.00;98194.13;4887974;28;102689;-81
2021/01/05 11:29:37;;;;;;;21.87;15.73;;;;;;;2.27;99.30;98191.56;4881935;28;103219;-77
2021/01/05 11:32:06;;;;;;;22.20;16.33;;;;;;;2.25;100.00;98193.34;4874192;28;104059;-77
2021/01/05 11:34:34;;;;;;;27.77;19.07;;;;;;;2.14;100.00;98185.19;4881132;28;104863;-76
2021/01/05 11:37:02;;;;;;;31.60;23.50;;;;;;;2.28;100.00;98181.03;4878982;28;104622;-75
2021/01/05 11:39:30;;;;;;;33.43;25.43;;;;;;;2.33;99.75;98184.25;4874316;28;103492;-75
2021/01/05 11:41:59;;;;;;;20.73;16.73;;;;;;;2.27;100.00;98188.94;4866064;28;103726;-77
2021/01/05 11:44:26;;;;;;;19.17;13.77;;;;;;;2.15;100.00;98181.69;4911180;28;103930;-75
2021/01/05 11:46:54;;;;;;;16.37;14.00;;;;;;;2.44;100.00;98182.94;4891873;28;103144;-76